Time;durP1;ratioP1;P1;durP2;ratioP2;P2;SDS_P1;SDS_P2;PMS_P1;PMS_P2;Temp;Humidity;BMP_temperature;BMP_pressure;BME280_temperature;BME280_humidity;BME280_pressure;Samples;Min_cycle;Max_cycle;Signal;HPM_P1;HPM_P2
2021/12/08 00:00:28;;;;;;;3.30;2.80;;;21.90;32.40;;;;;;5103220;28;20075;-67
2021/12/08 00:02:56;;;;;;;2.78;2.50;;;21.90;32.40;;;;;;5090685;27;20393;-66
2021/12/08 00:05:23;;;;;;;3.38;2.97;;;21.90;32.40;;;;;;5102725;28;20051;-66
2021/12/08 00:07:51;;;;;;;4.57;3.08;;;21.90;32.40;;;;;;5103418;28;20051;-66
2021/12/08 00:13:08;;;;;;;3.17;2.60;;;21.90;32.40;;;;;;5079103;28;20057;-66
2021/12/08 00:15:38;;;;;;;2.65;2.42;;;21.90;32.40;;;;;;5102572;28;20059;-66
2021/12/08 00:18:08;;;;;;;3.22;2.72;;;21.90;32.40;;;;;;5084835;28;20049;-66
2021/12/08 00:20:36;;;;;;;2.60;2.30;;;21.90;32.40;;;;;;5103243;28;20146;-66
2021/12/08 00:23:06;;;;;;;3.00;2.60;;;21.90;32.40;;;;;;5090435;27;20059;-66
2021/12/08 00:25:34;;;;;;;3.08;2.78;;;21.80;32.40;;;;;;5083864;28;20504;-66
2021/12/08 00:28:03;;;;;;;3.33;2.70;;;21.80;32.40;;;;;;5102385;28;20087;-66
2021/12/08 00:30:31;;;;;;;2.72;2.45;;;21.80;32.40;;;;;;5103690;27;20104;-66
2021/12/08 00:32:59;;;;;;;2.63;2.38;;;21.80;32.40;;;;;;5093901;27;20476;-66
2021/12/08 00:35:28;;;;;;;3.33;2.75;;;21.80;32.40;;;;;;5089340;27;20051;-66
2021/12/08 00:37:56;;;;;;;2.95;2.55;;;21.80;32.40;;;;;;5106144;27;20051;-66
2021/12/08 00:40:26;;;;;;;3.15;2.83;;;21.80;32.40;;;;;;5105826;27;20452;-66
2021/12/08 00:42:54;;;;;;;2.80;2.60;;;21.80;32.40;;;;;;5095723;27;20532;-66
2021/12/08 00:45:21;;;;;;;2.55;2.33;;;21.80;32.40;;;;;;5087282;27;20046;-66
2021/12/08 00:47:50;;;;;;;2.22;2.03;;;21.80;32.40;;;;;;5105861;27;20043;-66
2021/12/08 00:50:19;;;;;;;3.83;2.70;;;21.80;32.40;;;;;;5105712;27;20072;-66
2021/12/08 00:52:49;;;;;;;2.80;2.60;;;21.90;32.50;;;;;;5092650;27;20050;-66
2021/12/08 00:55:16;;;;;;;3.03;2.72;;;21.80;32.50;;;;;;5105786;27;20439;-66
2021/12/08 00:57:44;;;;;;;3.35;2.92;;;21.80;32.40;;;;;;5106563;27;20055;-66
2021/12/08 01:00:17;;;;;;;3.90;2.75;;;21.80;32.40;;;;;;5079403;28;20059;-66
2021/12/08 01:02:45;;;;;;;2.90;2.50;;;21.80;32.40;;;;;;5086705;27;20047;-66
2021/12/08 01:05:18;;;;;;;2.97;2.67;;;21.80;32.40;;;;;;5085334;28;20130;-66
2021/12/08 01:07:46;;;;;;;2.60;2.40;;;21.80;32.40;;;;;;5084841;28;20070;-66
2021/12/08 01:10:18;;;;;;;3.47;2.25;;;21.80;32.40;;;;;;5084885;28;20493;-66
2021/12/08 01:13:02;;;;;;;2.95;2.60;;;21.80;32.50;;;;;;5076003;27;20057;-66
2021/12/08 01:15:30;;;;;;;3.30;2.72;;;21.80;32.40;;;;;;5086609;27;20552;-66
2021/12/08 01:17:57;;;;;;;2.60;2.40;;;21.80;32.40;;;;;;5106066;27;21021;-66
2021/12/08 01:20:25;;;;;;;3.35;2.78;;;21.80;32.40;;;;;;5086986;27;20047;-66
2021/12/08 01:22:52;;;;;;;3.20;2.20;;;21.80;32.50;;;;;;5095409;27;20055;-66
2021/12/08 01:25:20;;;;;;;2.40;2.20;;;21.80;32.50;;;;;;5105117;27;20453;-66
2021/12/08 01:27:47;;;;;;;2.92;2.60;;;21.80;32.40;;;;;;5104836;27;20082;-67
2021/12/08 01:30:15;;;;;;;2.95;2.53;;;21.70;32.40;;;;;;5090935;27;20102;-66
2021/12/08 01:32:42;;;;;;;3.28;2.97;;;21.70;32.40;;;;;;5075898;27;20101;-66
2021/12/08 01:35:11;;;;;;;3.20;2.40;;;21.70;32.40;;;;;;5120058;27;20051;-66
2021/12/08 01:37:39;;;;;;;3.05;2.75;;;21.70;32.40;;;;;;5104899;27;20080;-66
2021/12/08 01:40:10;;;;;;;3.08;2.50;;;21.70;32.40;;;;;;5104726;27;20055;-66
2021/12/08 01:42:43;;;;;;;;;;;21.80;32.50;;;;;;5078267;27;20572;-66
2021/12/08 01:48:03;;;;;;;2.80;2.50;;;21.70;32.40;;;;;;5084181;28;20154;-66
2021/12/08 01:50:30;;;;;;;3.88;3.15;;;21.70;32.40;;;;;;5101573;27;20076;-65
2021/12/08 01:52:58;;;;;;;3.08;2.70;;;21.70;32.40;;;;;;5087293;27;20082;-66
2021/12/08 01:55:27;;;;;;;3.38;3.08;;;21.70;32.40;;;;;;5104768;27;20047;-66
2021/12/08 02:00:29;;;;;;;2.75;2.50;;;21.70;32.40;;;;;;5104271;27;20058;-66
2021/12/08 02:02:57;;;;;;;4.32;2.80;;;21.70;32.40;;;;;;5092653;27;20047;-66
2021/12/08 02:05:25;;;;;;;2.80;2.60;;;21.70;32.40;;;;;;5104379;27;20059;-66
2021/12/08 02:07:53;;;;;;;2.85;2.65;;;21.70;32.40;;;;;;5104107;27;20561;-66
2021/12/08 02:10:21;;;;;;;3.80;3.15;;;21.70;32.40;;;;;;5104258;27;20093;-66
2021/12/08 02:12:48;;;;;;;3.40;2.92;;;21.70;32.40;;;;;;5080625;27;20044;-66
2021/12/08 02:15:16;;;;;;;2.75;2.50;;;21.70;32.40;;;;;;5083562;28;20091;-66
2021/12/08 02:17:50;;;;;;;3.20;2.78;;;21.60;32.40;;;;;;5084214;28;20128;-67
2021/12/08 02:20:20;;;;;;;3.30;3.00;;;21.70;32.50;;;;;;5083620;28;20052;-66
2021/12/08 02:22:48;;;;;;;3.28;2.70;;;21.70;32.40;;;;;;5087301;27;20050;-67
2021/12/08 02:25:18;;;;;;;3.72;2.70;;;21.70;32.50;;;;;;5103975;27;20082;-66
2021/12/08 02:27:46;;;;;;;3.30;2.65;;;21.70;32.50;;;;;;5104197;27;20099;-66
2021/12/08 02:30:26;;;;;;;3.38;2.50;;;21.70;32.50;;;;;;5103612;27;20079;-66
2021/12/08 02:49:38;;;;;;;3.40;3.10;;;21.70;32.50;;;;;;5093040;27;20051;-66
2021/12/08 02:52:08;;;;;;;5.22;2.75;;;21.70;32.40;;;;;;5083514;27;20507;-67
2021/12/08 02:54:44;;;;;;;3.38;2.60;;;21.70;32.40;;;;;;5098395;27;20051;-66
2021/12/08 02:57:14;;;;;;;4.03;3.25;;;21.70;32.40;;;;;;5104439;27;20086;-67
2021/12/08 02:59:44;;;;;;;3.00;2.72;;;21.60;32.40;;;;;;5103315;27;20046;-66
2021/12/08 03:02:12;;;;;;;4.93;3.50;;;21.60;32.40;;;;;;5094167;27;20098;-67
2021/12/08 03:04:40;;;;;;;3.78;3.00;;;21.60;32.40;;;;;;5099995;27;20518;-67
2021/12/08 03:07:08;;;;;;;3.28;2.88;;;21.60;32.40;;;;;;5103629;27;20096;-67
2021/12/08 03:09:35;;;;;;;3.20;2.90;;;21.60;32.40;;;;;;5103072;27;20051;-67
2021/12/08 03:12:03;;;;;;;3.60;2.90;;;21.60;32.40;;;;;;5091123;27;20167;-67
2021/12/08 03:14:31;;;;;;;3.45;2.80;;;21.60;32.50;;;;;;5081899;27;20083;-67
2021/12/08 03:17:03;;;;;;;3.53;2.67;;;21.60;32.40;;;;;;5103350;27;20557;-67
2021/12/08 03:19:31;;;;;;;4.43;3.50;;;21.60;32.40;;;;;;5103099;27;20077;-67
2021/12/08 03:21:59;;;;;;;4.60;3.28;;;21.60;32.50;;;;;;5095486;27;20047;-67
2021/12/08 03:24:31;;;;;;;3.65;3.10;;;21.60;32.50;;;;;;5099917;27;20104;-67
2021/12/08 03:27:11;;;;;;;4.30;3.10;;;21.60;32.50;;;;;;5103836;28;20113;-67
2021/12/08 03:29:51;;;;;;;3.83;3.30;;;21.60;32.50;;;;;;5103039;28;20076;-67
2021/12/08 03:32:32;;;;;;;3.33;3.03;;;21.60;33.00;;;;;;5095012;27;20055;-67
2021/12/08 03:34:59;;;;;;;3.95;3.13;;;21.60;32.50;;;;;;5062484;28;20048;-67
2021/12/08 03:37:31;;;;;;;3.63;2.97;;;21.60;32.50;;;;;;5063062;28;20048;-67
2021/12/08 03:40:00;;;;;;;3.97;3.25;;;21.50;32.40;;;;;;5062300;28;20139;-67
2021/12/08 03:42:30;;;;;;;3.83;2.97;;;21.60;32.50;;;;;;5067423;28;20447;-67
2021/12/08 03:45:01;;;;;;;5.00;3.55;;;21.50;32.40;;;;;;5062202;28;20094;-67
2021/12/08 03:47:29;;;;;;;3.80;3.08;;;21.50;32.40;;;;;;5062966;28;20663;-67
2021/12/08 03:50:02;;;;;;;3.75;3.08;;;21.50;32.40;;;;;;5087839;28;20552;-67
2021/12/08 03:52:29;;;;;;;4.90;3.40;;;21.50;32.50;;;;;;5091367;28;20067;-67
2021/12/08 03:54:56;;;;;;;4.65;3.25;;;21.50;32.40;;;;;;5102603;27;20563;-67
2021/12/08 03:57:23;;;;;;;4.75;3.20;;;21.50;32.40;;;;;;5103638;28;20070;-67
2021/12/08 03:59:51;;;;;;;4.20;3.22;;;21.50;32.40;;;;;;5102887;28;20047;-67
2021/12/08 04:02:18;;;;;;;3.83;3.22;;;21.50;32.40;;;;;;5076524;28;20051;-67
2021/12/08 04:04:50;;;;;;;4.55;3.47;;;21.50;32.40;;;;;;5081329;28;20051;-68
2021/12/08 04:07:19;;;;;;;5.38;3.25;;;21.50;32.50;;;;;;5087880;27;20116;-67
2021/12/08 04:09:48;;;;;;;3.65;2.88;;;21.50;32.40;;;;;;5106614;27;20078;-67
2021/12/08 04:12:19;;;;;;;3.67;3.28;;;21.50;32.40;;;;;;5099398;27;20568;-67
2021/12/08 04:14:54;;;;;;;4.07;3.20;;;21.50;32.40;;;;;;5104357;27;20055;-67
2021/12/08 04:17:34;;;;;;;3.70;2.85;;;21.50;32.40;;;;;;5088279;27;20507;-67
2021/12/08 04:20:08;;;;;;;3.20;2.80;;;21.50;32.50;;;;;;5083772;27;20150;-67
2021/12/08 04:22:38;;;;;;;5.57;3.97;;;21.50;32.50;;;;;;5083344;27;20055;-67
2021/12/08 04:25:11;;;;;;;4.53;3.53;;;21.50;32.50;;;;;;5106211;27;20565;-67
2021/12/08 04:27:41;;;;;;;3.75;3.30;;;21.50;32.50;;;;;;5106298;27;20523;-67
2021/12/08 04:30:15;;;;;;;3.63;2.97;;;21.50;32.50;;;;;;5107147;27;20135;-67
2021/12/08 04:32:43;;;;;;;4.70;3.45;;;21.50;32.50;;;;;;5090806;27;20410;-67
2021/12/08 04:35:15;;;;;;;4.47;3.20;;;21.50;32.50;;;;;;5106352;27;20047;-68
2021/12/08 04:37:47;;;;;;;3.70;2.90;;;21.50;32.50;;;;;;5106902;27;20047;-67
2021/12/08 04:40:39;;;;;;;3.85;3.47;;;21.50;32.40;;;;;;5106711;27;21025;-67
2021/12/08 04:43:33;;;;;;;4.82;3.20;;;21.50;32.40;;;;;;5093918;27;20047;-67
2021/12/08 04:46:30;;;;;;;3.55;3.25;;;21.50;32.40;;;;;;5090841;27;20055;-67
2021/12/08 04:49:31;;;;;;;3.75;3.33;;;21.50;32.40;;;;;;5083270;28;20098;-67
2021/12/08 04:52:06;;;;;;;4.07;3.33;;;21.50;32.40;;;;;;5083832;27;20079;-67
2021/12/08 05:01:10;;;;;;;3.83;3.28;;;21.50;32.40;;;;;;5077687;28;20090;-67
2021/12/08 05:04:03;;;;;;;3.45;2.97;;;21.40;32.40;;;;;;5088012;27;20058;-67
2021/12/08 05:09:20;;;;;;;4.30;3.28;;;21.40;32.40;;;;;;5105710;27;20043;-67
2021/12/08 05:11:58;;;;;;;3.08;2.78;;;21.40;32.40;;;;;;5098308;27;20055;-66
2021/12/08 05:14:33;;;;;;;3.95;3.30;;;21.40;32.40;;;;;;5102659;27;20086;-66
2021/12/08 05:17:06;;;;;;;4.07;3.45;;;21.40;32.40;;;;;;5086913;27;20101;-66
2021/12/08 05:19:34;;;;;;;4.47;3.40;;;21.40;32.50;;;;;;5087638;27;20148;-66
2021/12/08 05:22:22;;;;;;;4.40;3.55;;;21.40;32.40;;;;;;5097093;27;20058;-65
2021/12/08 05:24:53;;;;;;;3.47;2.88;;;21.40;32.40;;;;;;5103134;27;20393;-66
2021/12/08 05:27:33;;;;;;;4.25;3.45;;;21.40;32.40;;;;;;5104669;27;20047;-65
2021/12/08 05:30:10;;;;;;;3.38;3.05;;;21.40;32.50;;;;;;5105370;27;20516;-66
2021/12/08 05:32:38;;;;;;;3.08;2.53;;;21.30;32.40;;;;;;5102397;27;20564;-66
2021/12/08 05:35:09;;;;;;;3.42;3.13;;;21.30;32.30;;;;;;5105535;27;20424;-66
2021/12/08 05:37:37;;;;;;;4.03;3.20;;;21.30;32.40;;;;;;5072808;28;20505;-66
2021/12/08 05:40:09;;;;;;;4.97;3.40;;;21.30;32.30;;;;;;5084974;28;20062;-66
2021/12/08 05:42:37;;;;;;;3.42;2.97;;;21.30;32.40;;;;;;5076145;28;20458;-67
2021/12/08 05:45:11;;;;;;;3.90;3.42;;;21.30;32.40;;;;;;5105703;27;20090;-66
2021/12/08 05:47:41;;;;;;;3.75;3.17;;;21.30;32.30;;;;;;5126056;27;20082;-66
2021/12/08 05:50:12;;;;;;;4.22;3.35;;;21.30;32.40;;;;;;5071943;28;20074;-66
2021/12/08 05:52:39;;;;;;;4.10;3.10;;;21.30;32.40;;;;;;5086845;27;20511;-66
2021/12/08 05:55:07;;;;;;;3.03;2.65;;;21.30;32.30;;;;;;5084458;27;20377;-66
2021/12/08 05:57:39;;;;;;;3.55;3.17;;;21.30;32.30;;;;;;5083636;28;20083;-66
2021/12/08 06:00:12;;;;;;;3.25;2.80;;;21.30;32.30;;;;;;5083995;28;20083;-66
2021/12/08 06:02:40;;;;;;;3.40;2.83;;;21.30;32.30;;;;;;5082151;27;20411;-65
2021/12/08 06:05:09;;;;;;;5.15;3.60;;;21.30;32.30;;;;;;5089046;27;20055;-65
2021/12/08 06:07:36;;;;;;;3.63;3.25;;;21.30;32.10;;;;;;5083807;28;20596;-65
2021/12/08 06:10:09;;;;;;;4.07;3.35;;;21.30;31.90;;;;;;5085673;27;20566;-66
2021/12/08 06:12:37;;;;;;;4.10;3.58;;;21.30;32.00;;;;;;5070702;27;20059;-65
2021/12/08 06:15:06;;;;;;;5.15;4.00;;;21.20;32.00;;;;;;5061489;27;20054;-67
2021/12/08 06:17:33;;;;;;;4.68;3.88;;;21.20;32.00;;;;;;5073736;28;20079;-67
2021/12/08 06:20:02;;;;;;;5.85;4.47;;;21.20;32.00;;;;;;5071408;28;20067;-67
2021/12/08 06:22:30;;;;;;;6.72;4.70;;;21.20;31.90;;;;;;5065940;27;20107;-68
2021/12/08 06:24:57;;;;;;;5.65;4.28;;;21.30;31.90;;;;;;5057467;28;20048;-67
2021/12/08 06:27:27;;;;;;;6.53;4.63;;;21.30;31.90;;;;;;5071670;28;20076;-68
2021/12/08 06:29:54;;;;;;;6.00;4.68;;;21.30;31.80;;;;;;5071899;27;20653;-68
2021/12/08 06:32:22;;;;;;;5.75;4.78;;;21.40;31.80;;;;;;5058479;28;20083;-68
2021/12/08 06:34:55;;;;;;;6.47;5.20;;;21.40;31.60;;;;;;5051474;28;20554;-67
2021/12/08 06:37:36;;;;;;;6.93;5.38;;;21.50;31.50;;;;;;5064786;28;20051;-66
2021/12/08 06:40:30;;;;;;;5.43;4.53;;;21.50;31.30;;;;;;5063642;27;20043;-63
2021/12/08 06:43:03;;;;;;;7.38;5.43;;;21.60;31.20;;;;;;5029701;28;20457;-65
2021/12/08 06:45:35;;;;;;;7.80;6.20;;;21.70;31.10;;;;;;5049464;28;20043;-64
2021/12/08 06:48:06;;;;;;;6.38;5.45;;;21.70;31.10;;;;;;5069793;27;20081;-65
2021/12/08 06:50:42;;;;;;;5.55;4.97;;;21.80;30.80;;;;;;5068292;27;20048;-65
2021/12/08 06:53:10;;;;;;;8.85;5.40;;;21.90;30.80;;;;;;5050687;28;20496;-66
2021/12/08 06:55:44;;;;;;;7.45;6.05;;;21.90;31.10;;;;;;5035075;28;20071;-68
2021/12/08 06:58:23;;;;;;;7.10;6.10;;;22.10;31.10;;;;;;5071453;27;20089;-65
2021/12/08 07:01:13;;;;;;;9.38;6.82;;;22.10;31.30;;;;;;5070796;28;20139;-65
2021/12/08 07:04:02;;;;;;;13.00;7.07;;;22.20;31.50;;;;;;5058959;27;20481;-67
2021/12/08 07:06:56;;;;;;;10.48;7.65;;;22.20;31.20;;;;;;5049068;28;20083;-68
2021/12/08 07:09:23;;;;;;;9.30;7.25;;;22.30;30.90;;;;;;5071707;27;20160;-67
2021/12/08 07:11:54;;;;;;;10.07;7.82;;;22.40;30.80;;;;;;5060541;28;20482;-67
2021/12/08 07:14:22;;;;;;;9.80;8.00;;;22.50;30.80;;;;;;5060830;27;20067;-65
2021/12/08 07:16:54;;;;;;;9.85;7.30;;;22.50;30.60;;;;;;5065102;28;20047;-65
2021/12/08 07:19:39;;;;;;;10.20;8.48;;;22.60;30.50;;;;;;5069281;28;20103;-64
2021/12/08 07:22:09;;;;;;;9.80;7.65;;;22.60;30.40;;;;;;5063319;27;20101;-65
2021/12/08 07:24:44;;;;;;;11.18;8.43;;;22.70;30.40;;;;;;5061387;28;20048;-65
2021/12/08 07:27:16;;;;;;;12.32;8.38;;;22.80;30.40;;;;;;5071532;28;20148;-65
2021/12/08 07:29:45;;;;;;;9.48;8.25;;;22.90;30.30;;;;;;5070194;28;20063;-64
2021/12/08 07:32:27;;;;;;;9.07;7.53;;;22.90;30.30;;;;;;5060688;28;20058;-65
2021/12/08 07:34:58;;;;;;;10.40;9.07;;;23.00;30.30;;;;;;5062750;28;20528;-64
2021/12/08 07:37:29;;;;;;;12.43;9.35;;;23.10;30.50;;;;;;5074403;28;20503;-65
2021/12/08 07:40:07;;;;;;;11.20;8.75;;;23.10;30.60;;;;;;5068831;28;20071;-63
2021/12/08 07:42:41;;;;;;;10.77;8.60;;;23.20;30.80;;;;;;5042182;27;20881;-63
2021/12/08 07:45:13;;;;;;;14.57;9.73;;;23.30;31.00;;;;;;5057208;28;20480;-64
2021/12/08 07:47:41;;;;;;;13.63;10.10;;;23.30;31.00;;;;;;5072648;28;20104;-65
2021/12/08 07:50:15;;;;;;;11.23;9.02;;;23.40;31.00;;;;;;5070590;27;20047;-65
2021/12/08 07:52:47;;;;;;;13.68;10.90;;;23.50;31.00;;;;;;5066641;27;20461;-68
2021/12/08 07:55:20;;;;;;;14.35;10.93;;;23.60;30.70;;;;;;5070366;28;20047;-67
2021/12/08 07:57:48;;;;;;;12.55;10.25;;;23.60;30.30;;;;;;5072148;27;20060;-67
2021/12/08 08:00:28;;;;;;;12.00;9.77;;;23.70;30.10;;;;;;5069245;27;20082;-66
2021/12/08 08:02:55;;;;;;;12.45;10.57;;;23.70;30.10;;;;;;5057999;27;20078;-64
2021/12/08 08:05:27;;;;;;;14.20;10.55;;;23.80;29.90;;;;;;5052082;28;20048;-67
2021/12/08 08:08:03;;;;;;;12.32;10.50;;;23.80;29.80;;;;;;5066346;27;20562;-67
2021/12/08 08:10:33;;;;;;;13.18;11.15;;;23.90;30.00;;;;;;5074275;27;20412;-64
2021/12/08 08:13:02;;;;;;;13.35;10.05;;;23.90;30.40;;;;;;5053943;28;20059;-66
2021/12/08 08:15:35;;;;;;;13.80;10.80;;;24.00;30.50;;;;;;5071030;28;20048;-67
2021/12/08 08:18:06;;;;;;;14.13;10.30;;;24.10;30.60;;;;;;5055761;28;20070;-65
2021/12/08 08:20:39;;;;;;;18.67;10.07;;;24.10;30.50;;;;;;5070259;27;20511;-62
2021/12/08 08:23:07;;;;;;;17.60;10.38;;;24.10;30.70;;;;;;5052659;27;20051;-64
2021/12/08 08:25:39;;;;;;;19.23;11.60;;;24.30;31.20;;;;;;5072624;27;20051;-66
2021/12/08 08:28:07;;;;;;;14.93;11.07;;;24.30;31.40;;;;;;5070557;27;20576;-64
2021/12/08 08:30:41;;;;;;;14.13;10.18;;;24.40;31.70;;;;;;5071499;27;20431;-63
2021/12/08 08:33:09;;;;;;;12.70;10.30;;;24.40;31.50;;;;;;5034884;28;20051;-64
2021/12/08 08:35:48;;;;;;;13.48;10.18;;;24.50;31.30;;;;;;5071201;27;20098;-63
2021/12/08 08:38:27;;;;;;;12.63;9.93;;;24.50;30.90;;;;;;5069410;27;20055;-63
2021/12/08 08:41:05;;;;;;;12.00;10.70;;;24.50;30.30;;;;;;5073911;27;20044;-64
2021/12/08 08:43:33;;;;;;;12.05;9.50;;;24.70;30.40;;;;;;5047952;28;20296;-63
2021/12/08 08:46:09;;;;;;;11.90;9.32;;;24.70;30.20;;;;;;5053904;28;20043;-62
2021/12/08 08:48:47;;;;;;;12.57;9.98;;;24.70;30.30;;;;;;5070710;27;20055;-64
2021/12/08 08:51:28;;;;;;;11.85;9.50;;;24.70;30.30;;;;;;5066109;27;21521;-63
2021/12/08 08:53:59;;;;;;;11.32;9.82;;;24.70;30.60;;;;;;5063247;27;20071;-62
2021/12/08 08:56:35;;;;;;;11.57;8.85;;;24.70;30.50;;;;;;5071608;27;20052;-61
2021/12/08 08:59:07;;;;;;;13.57;9.27;;;24.70;30.50;;;;;;5067770;27;20052;-63
2021/12/08 09:01:40;;;;;;;10.70;8.43;;;24.70;30.70;;;;;;5058463;27;20047;-64
2021/12/08 09:04:20;;;;;;;10.02;8.43;;;24.60;30.70;;;;;;5062515;27;20121;-64
2021/12/08 09:06:51;;;;;;;11.80;7.93;;;24.60;30.70;;;;;;5049956;28;20047;-66
2021/12/08 09:09:25;;;;;;;10.00;8.23;;;24.60;30.70;;;;;;5072022;27;20043;-65
2021/12/08 09:12:00;;;;;;;13.00;8.50;;;24.60;30.80;;;;;;5044788;28;20789;-63
2021/12/08 09:14:35;;;;;;;11.02;8.90;;;24.60;31.00;;;;;;5064804;28;20134;-63
2021/12/08 09:17:12;;;;;;;8.73;7.45;;;24.50;30.90;;;;;;5053096;28;20605;-61
2021/12/08 09:19:55;;;;;;;9.02;7.55;;;24.50;30.90;;;;;;5067702;28;20585;-61
2021/12/08 09:22:40;;;;;;;7.85;7.00;;;24.50;30.90;;;;;;5056903;27;20574;-64
2021/12/08 09:25:19;;;;;;;9.63;7.88;;;24.50;31.00;;;;;;5068945;27;20079;-64
2021/12/08 09:27:51;;;;;;;8.65;7.20;;;24.60;31.20;;;;;;5066655;27;20052;-63
2021/12/08 09:30:32;;;;;;;9.93;8.05;;;24.50;31.10;;;;;;5073297;27;20096;-64
2021/12/08 09:33:18;;;;;;;7.30;6.55;;;24.50;31.60;;;;;;5042166;28;20083;-66
2021/12/08 09:35:49;;;;;;;9.65;7.78;;;24.50;31.20;;;;;;5072420;27;20151;-64
2021/12/08 09:38:27;;;;;;;7.97;7.18;;;24.60;31.20;;;;;;5073374;27;20039;-66
2021/12/08 09:41:00;;;;;;;8.75;7.07;;;24.60;31.40;;;;;;5067169;28;20138;-64
2021/12/08 09:43:40;;;;;;;11.85;6.82;;;24.60;31.30;;;;;;5063519;27;20712;-65
2021/12/08 09:46:15;;;;;;;7.40;6.17;;;24.60;31.30;;;;;;5072849;27;20114;-63
2021/12/08 09:48:44;;;;;;;9.38;6.30;;;24.60;31.30;;;;;;5068054;28;20508;-62
2021/12/08 09:51:15;;;;;;;11.07;6.50;;;24.60;31.40;;;;;;5066971;27;20092;-63
2021/12/08 09:53:44;;;;;;;7.53;6.47;;;24.70;31.40;;;;;;5062012;27;20105;-64
2021/12/08 09:56:17;;;;;;;8.73;6.78;;;24.70;31.50;;;;;;5048506;28;20053;-62
2021/12/08 09:58:45;;;;;;;8.10;6.82;;;24.70;31.50;;;;;;5047215;27;20489;-63
2021/12/08 10:01:18;;;;;;;8.63;6.03;;;24.80;31.40;;;;;;5061949;27;20660;-63
2021/12/08 10:03:49;;;;;;;11.52;5.88;;;24.70;31.40;;;;;;5056369;27;20051;-63
2021/12/08 10:06:17;;;;;;;8.77;6.07;;;24.80;31.30;;;;;;5065788;27;20485;-63
2021/12/08 10:08:46;;;;;;;6.53;5.72;;;24.80;31.30;;;;;;5071277;27;20059;-63
2021/12/08 10:11:14;;;;;;;8.13;6.20;;;24.80;31.30;;;;;;5063228;27;20098;-62
2021/12/08 10:13:44;;;;;;;6.68;5.25;;;24.90;31.20;;;;;;5060748;27;20067;-63
2021/12/08 10:16:12;;;;;;;;;;;24.90;31.80;;;;;;5068251;27;20129;-61
2021/12/08 10:18:40;;;;;;;6.55;5.85;;;24.90;31.20;;;;;;5069676;27;20022;-62
2021/12/08 10:21:08;;;;;;;5.40;4.82;;;24.90;31.20;;;;;;5048864;28;21687;-62
2021/12/08 10:23:38;;;;;;;7.93;5.95;;;24.90;31.30;;;;;;5062153;27;20166;-62
2021/12/08 10:26:11;;;;;;;10.18;5.32;;;24.90;31.30;;;;;;5067291;28;20064;-61
2021/12/08 10:28:48;;;;;;;6.53;5.22;;;24.90;31.20;;;;;;5069347;27;20052;-63
2021/12/08 10:31:27;;;;;;;6.97;5.43;;;24.90;31.20;;;;;;5061588;27;20098;-62
2021/12/08 10:34:21;;;;;;;6.68;5.72;;;24.90;31.10;;;;;;5058967;27;20091;-62
2021/12/08 10:37:05;;;;;;;6.88;5.03;;;25.00;31.30;;;;;;5065800;28;20075;-62
2021/12/08 10:39:37;;;;;;;5.00;4.50;;;25.00;31.20;;;;;;5059292;28;20121;-62
2021/12/08 10:42:19;;;;;;;6.47;4.32;;;24.90;31.00;;;;;;5054461;28;20053;-64
2021/12/08 10:45:02;;;;;;;7.30;4.60;;;24.90;30.80;;;;;;5065942;27;20117;-62
2021/12/08 10:47:36;;;;;;;4.93;4.45;;;24.90;30.70;;;;;;5069849;28;20083;-64
2021/12/08 10:55:40;;;;;;;5.80;4.75;;;25.00;30.50;;;;;;5053981;28;20043;-61
2021/12/08 10:58:19;;;;;;;7.45;4.32;;;24.90;30.40;;;;;;5065910;28;20047;-63
2021/12/08 11:00:46;;;;;;;6.78;4.00;;;25.00;30.30;;;;;;5048408;28;20083;-61
2021/12/08 11:03:15;;;;;;;5.57;4.15;;;25.00;30.30;;;;;;5058882;27;21056;-61
2021/12/08 11:05:52;;;;;;;4.95;4.13;;;25.00;30.10;;;;;;5075460;27;21049;-60
2021/12/08 11:08:31;;;;;;;5.85;4.25;;;25.00;30.00;;;;;;5072801;28;20051;-62
2021/12/08 11:11:20;;;;;;;7.25;4.03;;;25.00;30.30;;;;;;5068189;27;20067;-63
2021/12/08 11:13:56;;;;;;;5.32;3.83;;;25.00;29.80;;;;;;5071476;27;20054;-61
2021/12/08 11:16:36;;;;;;;4.65;3.92;;;25.00;29.80;;;;;;5054236;28;20573;-61
2021/12/08 11:19:10;;;;;;;4.53;4.03;;;25.00;29.60;;;;;;5050774;28;20656;-61
2021/12/08 11:21:42;;;;;;;6.18;3.45;;;25.00;29.20;;;;;;5064523;27;20109;-61
2021/12/08 11:24:19;;;;;;;5.22;4.15;;;25.00;28.90;;;;;;5048515;28;20044;-61
2021/12/08 11:26:49;;;;;;;6.38;3.85;;;25.00;28.70;;;;;;5053042;28;20055;-62
2021/12/08 11:29:23;;;;;;;5.20;3.95;;;24.90;28.80;;;;;;5069562;27;20050;-62
2021/12/08 11:31:55;;;;;;;4.38;3.80;;;25.00;29.30;;;;;;5063286;28;20584;-61
2021/12/08 11:34:35;;;;;;;6.28;3.70;;;24.90;29.00;;;;;;5065652;28;20055;-62
2021/12/08 11:37:09;;;;;;;5.65;3.63;;;24.90;29.20;;;;;;5072795;28;20048;-62
2021/12/08 11:39:42;;;;;;;4.75;3.67;;;24.90;29.20;;;;;;5072467;28;20071;-62
2021/12/08 11:42:16;;;;;;;4.90;4.05;;;24.90;29.20;;;;;;5060165;28;20488;-62
2021/12/08 11:44:46;;;;;;;4.13;3.72;;;24.90;29.20;;;;;;5069753;28;20052;-62
2021/12/08 11:47:23;;;;;;;;;;;24.90;29.20;;;;;;5074256;28;20068;-62
2021/12/08 11:49:54;;;;;;;5.25;3.65;;;24.80;29.20;;;;;;5072321;28;19958;-62
2021/12/08 11:52:26;;;;;;;5.70;3.78;;;24.80;29.20;;;;;;5060838;28;20051;-62
2021/12/08 11:55:02;;;;;;;4.60;3.40;;;24.80;29.20;;;;;;5064045;28;20098;-63
2021/12/08 11:57:40;;;;;;;3.97;3.30;;;24.80;29.20;;;;;;5068432;28;20047;-60
2021/12/08 12:00:19;;;;;;;5.30;3.20;;;24.80;29.20;;;;;;5061005;28;20101;-61
2021/12/08 12:02:54;;;;;;;4.30;3.38;;;24.80;29.60;;;;;;5050191;28;20048;-61
2021/12/08 12:05:32;;;;;;;3.78;3.08;;;24.80;29.10;;;;;;5068790;28;20412;-62
2021/12/08 12:08:02;;;;;;;3.55;3.25;;;24.80;29.10;;;;;;5065402;28;20043;-62
2021/12/08 12:10:33;;;;;;;4.85;3.38;;;24.80;29.30;;;;;;5068718;28;20147;-61
2021/12/08 12:13:03;;;;;;;3.55;2.83;;;24.80;29.40;;;;;;5052600;28;20133;-62
2021/12/08 12:15:31;;;;;;;4.00;3.60;;;24.80;29.40;;;;;;5047236;28;20636;-60
2021/12/08 12:17:58;;;;;;;5.35;2.78;;;24.70;29.30;;;;;;5067807;28;20604;-61
2021/12/08 12:20:39;;;;;;;4.50;2.92;;;24.80;29.40;;;;;;5048435;28;20071;-62
2021/12/08 12:23:46;;;;;;;3.70;3.17;;;24.80;29.30;;;;;;5061189;27;20497;-61
2021/12/08 12:26:53;;;;;;;3.72;3.15;;;24.80;29.20;;;;;;5069119;28;20511;-59
2021/12/08 12:29:44;;;;;;;4.50;2.63;;;24.70;29.30;;;;;;5072718;27;20071;-61
2021/12/08 12:32:22;;;;;;;3.72;3.03;;;24.70;29.10;;;;;;5068610;27;20139;-59
2021/12/08 12:34:53;;;;;;;3.53;3.20;;;24.70;29.10;;;;;;5074698;27;20126;-63
2021/12/08 12:37:33;;;;;;;2.70;2.50;;;24.70;29.10;;;;;;5055416;28;20508;-60
2021/12/08 12:40:02;;;;;;;;;;;24.70;29.20;;;;;;5073594;27;20048;-61
2021/12/08 12:42:51;;;;;;;3.17;2.88;;;24.70;29.20;;;;;;5066292;27;20669;-60
2021/12/08 12:45:22;;;;;;;4.00;3.30;;;24.70;29.20;;;;;;5050760;28;20059;-60
2021/12/08 12:48:15;;;;;;;2.72;2.22;;;24.70;29.20;;;;;;5072256;28;20102;-61
2021/12/08 12:50:59;;;;;;;2.78;2.58;;;24.70;29.10;;;;;;5072929;27;20136;-61
2021/12/08 12:53:38;;;;;;;2.95;2.63;;;24.70;29.20;;;;;;5042084;27;20076;-60
2021/12/08 12:56:18;;;;;;;3.75;2.75;;;24.70;29.30;;;;;;5049460;28;20058;-60
2021/12/08 12:58:53;;;;;;;2.90;2.60;;;24.70;29.20;;;;;;5073401;27;20531;-59
2021/12/08 13:01:34;;;;;;;3.80;2.55;;;24.70;29.20;;;;;;5062626;27;20132;-61
2021/12/08 13:04:15;;;;;;;2.53;2.33;;;24.70;29.20;;;;;;5060402;27;20051;-61
2021/12/08 13:06:56;;;;;;;2.63;2.42;;;24.70;29.10;;;;;;5067968;28;20058;-59
2021/12/08 13:09:47;;;;;;;2.53;2.30;;;24.60;29.10;;;;;;5074485;27;20140;-59
2021/12/08 13:12:27;;;;;;;2.75;2.33;;;24.70;29.10;;;;;;5059949;27;20098;-60
2021/12/08 13:15:21;;;;;;;2.78;2.30;;;24.70;29.40;;;;;;5068271;27;20100;-59
2021/12/08 13:18:12;;;;;;;2.75;2.55;;;24.60;29.40;;;;;;5067831;28;20063;-59
2021/12/08 13:20:42;;;;;;;3.53;2.13;;;24.60;29.30;;;;;;5072892;27;20105;-60
2021/12/08 13:23:12;;;;;;;2.55;2.35;;;24.60;29.20;;;;;;5057184;27;20054;-60
2021/12/08 13:25:55;;;;;;;3.00;2.13;;;24.60;29.20;;;;;;5074168;27;20448;-60
2021/12/08 13:29:00;;;;;;;3.00;2.45;;;24.60;29.40;;;;;;5071862;27;21016;-62
2021/12/08 13:31:38;;;;;;;3.45;1.85;;;24.60;29.70;;;;;;5049782;27;20134;-61
2021/12/08 13:34:10;;;;;;;2.42;1.85;;;24.60;29.70;;;;;;5043682;28;20044;-60
2021/12/08 13:36:43;;;;;;;3.03;2.10;;;24.60;29.80;;;;;;5052385;27;20456;-60
2021/12/08 13:39:27;;;;;;;2.60;2.10;;;24.60;29.80;;;;;;5073897;27;20051;-61
2021/12/08 13:42:18;;;;;;;2.65;2.35;;;24.50;29.60;;;;;;5061517;27;20047;-61
2021/12/08 13:44:54;;;;;;;4.80;2.30;;;24.60;29.50;;;;;;5073529;27;20044;-60
2021/12/08 13:47:28;;;;;;;2.63;2.10;;;24.50;29.50;;;;;;5073064;28;20048;-60
2021/12/08 13:49:59;;;;;;;2.33;2.13;;;24.50;29.40;;;;;;5052571;28;20106;-60
2021/12/08 13:52:29;;;;;;;2.42;2.20;;;24.50;29.30;;;;;;5059028;28;20744;-60
2021/12/08 13:54:58;;;;;;;;;;;24.50;29.20;;;;;;5065464;28;20140;-60
2021/12/08 13:57:33;;;;;;;2.10;1.90;;;24.50;29.00;;;;;;5073530;28;19959;-60